createdAt,value
2018-12-19T00:01:17.624Z,2.65
2018-12-19T00:03:45.975Z,1.87
2018-12-19T00:06:14.346Z,2.85
2018-12-19T00:08:42.883Z,2.35
2018-12-19T00:11:11.340Z,1.67
2018-12-19T00:13:39.720Z,2.37
2018-12-19T00:16:08.062Z,2.65
2018-12-19T00:18:36.500Z,1.90
2018-12-19T00:21:04.901Z,2.20
2018-12-19T00:23:33.242Z,2.95
2018-12-19T00:26:01.730Z,3.40
2018-12-19T00:28:30.124Z,1.90
2018-12-19T00:30:58.473Z,2.10
2018-12-19T00:33:26.821Z,2.00
2018-12-19T00:35:55.474Z,2.72
2018-12-19T00:38:23.825Z,2.00
2018-12-19T00:40:52.178Z,2.65
2018-12-19T00:43:20.554Z,1.95
2018-12-19T00:45:49.051Z,2.83
2018-12-19T00:48:17.474Z,2.12
2018-12-19T00:50:45.885Z,1.90
2018-12-19T00:53:14.257Z,2.92
2018-12-19T00:55:42.610Z,3.02
2018-12-19T00:58:10.969Z,2.15
2018-12-19T01:00:39.341Z,2.20
2018-12-19T01:03:07.688Z,2.15
2018-12-19T01:05:36.071Z,2.30
2018-12-19T01:08:04.530Z,2.15
2018-12-19T01:10:32.874Z,2.30
2018-12-19T01:13:01.454Z,2.60
2018-12-19T01:15:29.833Z,2.33
2018-12-19T01:17:58.195Z,2.58
2018-12-19T01:20:26.887Z,2.55
2018-12-19T01:22:55.231Z,2.75
2018-12-19T01:25:23.942Z,2.35
2018-12-19T01:27:52.321Z,3.05
2018-12-19T01:30:20.723Z,2.42
2018-12-19T01:32:49.388Z,2.40
2018-12-19T01:35:17.755Z,2.20
2018-12-19T01:37:46.151Z,2.12
2018-12-19T01:40:14.543Z,2.40
2018-12-19T01:42:42.994Z,2.12
2018-12-19T01:45:11.432Z,2.40
2018-12-19T01:47:39.894Z,3.05
2018-12-19T01:50:08.260Z,3.25
2018-12-19T01:52:36.648Z,2.55
2018-12-19T01:55:05.100Z,2.20
2018-12-19T01:57:33.586Z,3.10
2018-12-19T02:00:01.929Z,3.80
2018-12-19T02:02:30.402Z,3.35
2018-12-19T02:04:58.800Z,3.42
2018-12-19T02:07:27.155Z,2.80
2018-12-19T02:09:55.514Z,2.50
2018-12-19T02:12:23.886Z,2.75
2018-12-19T02:14:52.226Z,2.85
2018-12-19T02:17:20.542Z,2.27
2018-12-19T02:19:48.901Z,1.50
2018-12-19T02:22:17.335Z,3.50
2018-12-19T02:24:45.687Z,2.33
2018-12-19T02:27:14.078Z,1.77
2018-12-19T02:29:42.432Z,2.12
2018-12-19T02:32:10.769Z,2.60
2018-12-19T02:34:39.180Z,2.30
2018-12-19T02:37:07.535Z,2.60
2018-12-19T02:39:36.355Z,2.25
2018-12-19T02:42:05.077Z,2.20
2018-12-19T02:44:33.723Z,2.67
2018-12-19T02:47:02.127Z,2.45
2018-12-19T02:49:30.503Z,4.45
2018-12-19T02:51:59.092Z,2.47
2018-12-19T02:54:27.677Z,3.12
2018-12-19T02:56:56.060Z,3.47
2018-12-19T02:59:24.512Z,2.47
2018-12-19T03:01:52.913Z,2.25
2018-12-19T03:04:21.286Z,2.60
2018-12-19T03:06:49.631Z,2.52
2018-12-19T03:09:18.056Z,2.52
2018-12-19T03:11:46.456Z,2.25
2018-12-19T03:14:14.788Z,2.60
2018-12-19T03:16:43.158Z,3.33
2018-12-19T03:19:11.540Z,2.65
2018-12-19T03:21:39.884Z,2.70
2018-12-19T03:24:08.239Z,2.10
2018-12-19T03:26:36.609Z,2.25
2018-12-19T03:29:04.959Z,2.17
2018-12-19T03:31:33.331Z,2.80
2018-12-19T03:34:01.690Z,3.65
2018-12-19T03:36:30.043Z,2.33
2018-12-19T03:38:58.595Z,2.45
2018-12-19T03:41:27.285Z,2.33
2018-12-19T03:43:55.646Z,2.22
2018-12-19T03:46:24.263Z,2.75
2018-12-19T03:48:57.616Z,1.90
2018-12-19T03:51:25.992Z,2.65
2018-12-19T03:53:54.365Z,2.50
2018-12-19T03:56:22.766Z,2.80
2018-12-19T03:58:51.115Z,2.65
2018-12-19T04:01:19.463Z,2.80
2018-12-19T04:03:47.837Z,1.95
2018-12-19T04:06:16.346Z,2.70
2018-12-19T04:08:44.689Z,2.50
2018-12-19T04:11:13.055Z,3.10
2018-12-19T04:13:41.415Z,2.77
2018-12-19T04:16:09.771Z,3.22
2018-12-19T04:18:38.443Z,3.35
2018-12-19T04:21:06.809Z,3.52
2018-12-19T04:23:35.155Z,4.10
2018-12-19T04:26:03.989Z,2.90
2018-12-19T04:28:32.337Z,3.85
2018-12-19T04:31:00.776Z,3.90
2018-12-19T04:33:29.233Z,3.47
2018-12-19T04:35:57.586Z,4.25
2018-12-19T04:38:26.684Z,4.25
2018-12-19T04:40:55.265Z,4.17
2018-12-19T04:43:23.602Z,3.70
2018-12-19T04:45:51.977Z,3.20
2018-12-19T04:48:20.350Z,3.70
2018-12-19T04:50:48.816Z,3.85
2018-12-19T04:53:17.283Z,5.15
2018-12-19T04:55:45.660Z,3.90
2018-12-19T04:58:14.042Z,3.15
2018-12-19T05:00:42.601Z,3.22
2018-12-19T05:03:11.844Z,3.72
2018-12-19T05:05:40.219Z,3.33
2018-12-19T05:08:08.672Z,3.25
2018-12-19T05:10:37.030Z,2.33
2018-12-19T05:13:05.425Z,3.45
2018-12-19T05:15:33.794Z,3.62
2018-12-19T05:18:02.196Z,3.98
2018-12-19T05:20:31.430Z,2.90
2018-12-19T05:22:59.786Z,2.80
2018-12-19T05:25:28.173Z,4.35
2018-12-19T05:27:56.579Z,3.72
2018-12-19T05:30:24.917Z,3.02
2018-12-19T05:32:53.308Z,2.20
2018-12-19T05:35:21.676Z,3.30
2018-12-19T05:37:50.366Z,2.65
2018-12-19T05:40:19.228Z,2.17
2018-12-19T05:42:47.804Z,3.40
2018-12-19T05:45:16.153Z,2.80
2018-12-19T05:47:44.541Z,3.15
2018-12-19T05:50:14.194Z,2.47
2018-12-19T05:52:42.808Z,3.15
2018-12-19T05:55:11.522Z,2.80
2018-12-19T05:57:40.202Z,2.62
2018-12-19T06:00:08.835Z,2.58
2018-12-19T06:02:37.219Z,2.92
2018-12-19T06:05:05.937Z,3.65
2018-12-19T06:07:34.295Z,3.35
2018-12-19T06:10:02.776Z,2.95
2018-12-19T06:12:31.290Z,4.05
2018-12-19T06:14:59.861Z,3.67
2018-12-19T06:17:28.459Z,2.90
2018-12-19T06:19:56.802Z,4.30
2018-12-19T06:24:48.393Z,4.10
2018-12-19T06:27:16.758Z,3.65
2018-12-19T06:29:45.370Z,3.40
2018-12-19T06:32:13.762Z,4.17
2018-12-19T06:34:42.111Z,4.12
2018-12-19T06:37:10.545Z,4.80
2018-12-19T06:39:38.982Z,4.03
2018-12-19T06:42:07.337Z,5.20
2018-12-19T06:44:35.693Z,4.47
2018-12-19T06:47:04.143Z,4.33
2018-12-19T06:49:32.494Z,6.30
2018-12-19T06:52:01.780Z,6.08
2018-12-19T06:54:30.761Z,6.25
2018-12-19T06:56:59.150Z,6.30
2018-12-19T06:59:27.550Z,5.78
2018-12-19T07:01:55.956Z,5.97
2018-12-19T07:05:53.983Z,5.47
2018-12-19T07:08:22.371Z,7.45
2018-12-19T07:10:50.731Z,6.62
2018-12-19T07:13:19.631Z,6.40
2018-12-19T07:15:48.045Z,6.03
2018-12-19T07:18:16.797Z,4.97
2018-12-19T07:20:45.160Z,5.90
2018-12-19T07:23:13.560Z,6.90
2018-12-19T07:25:41.920Z,4.62
2018-12-19T07:28:10.271Z,5.03
2018-12-19T07:30:38.680Z,5.87
2018-12-19T07:33:07.037Z,4.80
2018-12-19T07:35:35.760Z,5.42
2018-12-19T07:38:04.528Z,5.47
2018-12-19T07:40:32.885Z,5.33
2018-12-19T07:43:01.813Z,4.62
2018-12-19T07:45:30.216Z,7.12
2018-12-19T07:47:58.567Z,6.83
2018-12-19T07:50:26.928Z,6.28
2018-12-19T07:52:55.314Z,4.10
2018-12-19T07:55:23.674Z,4.65
2018-12-19T07:57:52.057Z,5.10
2018-12-19T08:00:20.424Z,4.20
2018-12-19T08:02:48.782Z,5.65
2018-12-19T08:05:17.132Z,5.45
2018-12-19T08:07:45.527Z,4.10
2018-12-19T08:10:14.047Z,4.85
2018-12-19T08:12:42.399Z,4.35
2018-12-19T08:15:11.023Z,5.25
2018-12-19T08:17:39.387Z,4.60
2018-12-19T08:20:07.834Z,5.67
2018-12-19T08:22:36.206Z,5.28
2018-12-19T08:25:05.314Z,4.62
2018-12-19T08:27:33.889Z,5.25
2018-12-19T08:30:02.273Z,5.37
2018-12-19T08:32:30.622Z,4.35
2018-12-19T08:34:58.982Z,4.15
2018-12-19T08:37:27.345Z,3.85
2018-12-19T08:39:55.870Z,3.00
2018-12-19T08:42:24.219Z,3.52
2018-12-19T08:44:52.601Z,3.35
2018-12-19T08:47:20.944Z,2.22
2018-12-19T08:49:49.319Z,2.47
2018-12-19T08:52:17.698Z,2.08
2018-12-19T08:54:46.053Z,3.02
2018-12-19T08:57:14.412Z,2.77
2018-12-19T08:59:42.880Z,3.83
2018-12-19T09:02:12.058Z,3.10
2018-12-19T09:04:40.628Z,2.58
2018-12-19T09:07:09.020Z,2.37
2018-12-19T09:09:37.379Z,1.65
2018-12-19T09:12:05.725Z,3.15
2018-12-19T09:14:34.099Z,2.30
2018-12-19T09:17:02.577Z,1.37
2018-12-19T09:19:31.506Z,1.57
2018-12-19T09:22:00.696Z,1.75
2018-12-19T09:24:29.110Z,2.30
2018-12-19T09:26:57.471Z,1.42
2018-12-19T09:29:26.460Z,2.92
2018-12-19T09:31:54.808Z,2.00
2018-12-19T09:34:23.155Z,1.98
2018-12-19T09:36:51.541Z,1.85
2018-12-19T09:39:20.199Z,2.20
2018-12-19T09:41:48.664Z,2.40
2018-12-19T09:44:17.928Z,2.40
2018-12-19T09:46:46.299Z,1.27
2018-12-19T09:49:14.671Z,1.92
2018-12-19T09:51:43.286Z,2.12
2018-12-19T09:54:11.830Z,1.62
2018-12-19T09:56:40.182Z,2.55
2018-12-19T09:59:08.574Z,1.90
2018-12-19T10:01:37.012Z,2.08
2018-12-19T10:04:05.446Z,2.30
2018-12-19T10:06:33.818Z,1.67
2018-12-19T10:09:02.449Z,1.27
2018-12-19T10:11:31.076Z,1.70
2018-12-19T10:13:59.465Z,1.27
2018-12-19T10:16:27.824Z,2.85
2018-12-19T10:18:56.311Z,1.55
2018-12-19T10:21:24.684Z,2.47
2018-12-19T10:23:53.307Z,1.50
2018-12-19T10:26:21.667Z,2.05
2018-12-19T10:28:50.060Z,1.50
2018-12-19T10:31:18.426Z,2.40
2018-12-19T10:33:46.791Z,1.60
2018-12-19T10:36:15.158Z,1.22
2018-12-19T10:38:43.515Z,2.33
2018-12-19T10:41:12.022Z,2.50
2018-12-19T10:43:41.726Z,3.10
2018-12-19T10:46:10.495Z,2.15
2018-12-19T10:48:38.840Z,2.12
2018-12-19T10:51:07.224Z,1.75
2018-12-19T10:53:35.591Z,2.22
2018-12-19T10:56:04.076Z,2.87
2018-12-19T10:58:33.039Z,1.37
2018-12-19T11:01:01.908Z,1.82
2018-12-19T11:03:30.375Z,2.10
2018-12-19T11:05:58.752Z,1.80
2018-12-19T11:08:27.128Z,1.80
2018-12-19T11:10:55.599Z,2.12
2018-12-19T11:13:23.991Z,2.08
2018-12-19T11:15:52.354Z,2.25
2018-12-19T11:18:20.743Z,2.95
2018-12-19T11:20:49.434Z,2.40
2018-12-19T11:23:17.832Z,1.10
2018-12-19T11:25:46.216Z,2.40
2018-12-19T11:28:14.615Z,1.22
2018-12-19T11:30:43.240Z,1.70
2018-12-19T11:33:11.819Z,2.35
2018-12-19T11:35:40.210Z,1.90
2018-12-19T11:38:08.649Z,2.27
2018-12-19T11:40:37.013Z,1.77
2018-12-19T11:43:05.442Z,1.02
2018-12-19T11:45:34.111Z,3.90
2018-12-19T11:48:02.510Z,2.45
2018-12-19T11:50:30.891Z,2.45
2018-12-19T11:52:59.258Z,2.02
2018-12-19T11:55:27.617Z,2.67
2018-12-19T11:57:56.000Z,1.35
2018-12-19T12:00:24.382Z,1.60
2018-12-19T12:02:52.803Z,1.37
2018-12-19T12:05:21.467Z,1.40
2018-12-19T12:07:49.836Z,1.32
2018-12-19T12:10:18.205Z,1.80
2018-12-19T12:12:46.629Z,2.17
2018-12-19T12:15:15.001Z,1.77
2018-12-19T12:17:43.486Z,2.25
2018-12-19T12:20:11.896Z,1.62
2018-12-19T12:22:41.170Z,1.75
2018-12-19T12:25:09.859Z,4.15
2018-12-19T12:27:38.303Z,3.00
2018-12-19T12:30:07.083Z,1.57
2018-12-19T12:32:35.654Z,2.75
2018-12-19T12:35:04.443Z,1.40
2018-12-19T12:37:33.172Z,1.10
2018-12-19T12:40:01.569Z,2.12
2018-12-19T12:42:29.983Z,2.45
2018-12-19T12:44:58.645Z,2.08
2018-12-19T12:47:27.137Z,2.43
2018-12-19T12:49:56.312Z,1.47
2018-12-19T12:52:24.674Z,2.10
2018-12-19T12:54:53.043Z,2.37
2018-12-19T12:57:21.420Z,2.30
2018-12-19T12:59:49.840Z,3.02
2018-12-19T13:02:18.219Z,1.87
2018-12-19T13:04:46.602Z,2.37
2018-12-19T13:07:15.290Z,2.95
2018-12-19T13:09:43.810Z,1.67
2018-12-19T13:12:12.291Z,2.45
2018-12-19T13:14:41.110Z,2.35
2018-12-19T13:17:09.473Z,2.70
2018-12-19T13:19:37.881Z,2.37
2018-12-19T13:22:06.498Z,2.17
2018-12-19T13:24:34.855Z,1.62
2018-12-19T13:27:03.835Z,1.45
2018-12-19T13:29:32.204Z,2.98
2018-12-19T13:32:00.986Z,1.57
2018-12-19T13:34:29.379Z,1.92
2018-12-19T13:36:57.744Z,1.32
2018-12-19T13:39:26.089Z,2.22
2018-12-19T13:41:54.478Z,1.85
2018-12-19T13:44:22.841Z,1.40
2018-12-19T13:46:51.492Z,2.02
2018-12-19T13:49:19.893Z,2.90
2018-12-19T13:51:48.386Z,1.67
2018-12-19T13:54:16.753Z,1.77
2018-12-19T13:56:45.147Z,1.42
2018-12-19T13:59:13.516Z,1.50
2018-12-19T14:01:41.918Z,1.47
2018-12-19T14:04:10.309Z,1.42
2018-12-19T14:06:38.866Z,1.15
2018-12-19T14:09:07.759Z,1.35
2018-12-19T14:11:36.138Z,2.45
2018-12-19T14:14:04.758Z,2.17
2018-12-19T14:16:33.277Z,1.22
2018-12-19T14:19:01.698Z,1.40
2018-12-19T14:21:30.656Z,1.00
2018-12-19T14:23:59.115Z,2.00
2018-12-19T14:26:27.555Z,1.67
2018-12-19T14:28:56.091Z,1.37
2018-12-19T14:31:24.511Z,1.90
2018-12-19T14:33:52.903Z,2.50
2018-12-19T14:36:21.279Z,1.12
2018-12-19T14:38:49.976Z,1.98
2018-12-19T14:41:18.336Z,1.75
2018-12-19T14:43:46.705Z,1.75
2018-12-19T14:46:15.071Z,2.02
2018-12-19T14:48:43.452Z,1.12
2018-12-19T14:51:12.223Z,2.10
2018-12-19T14:53:41.339Z,1.45
2018-12-19T14:56:10.143Z,1.22
2018-12-19T14:58:38.775Z,2.20
2018-12-19T15:01:07.149Z,1.80
2018-12-19T15:03:35.546Z,2.37
2018-12-19T15:06:04.039Z,1.42
2018-12-19T15:08:32.657Z,2.00
2018-12-19T15:11:01.692Z,1.98
2018-12-19T15:13:30.055Z,1.25
2018-12-19T15:16:01.870Z,1.45
2018-12-19T15:18:30.643Z,1.60
2018-12-19T15:20:59.117Z,2.17
2018-12-19T15:23:27.482Z,1.90
2018-12-19T15:25:55.875Z,2.00
2018-12-19T15:28:24.274Z,1.80
2018-12-19T15:30:52.623Z,1.70
2018-12-19T15:33:21.025Z,2.15
2018-12-19T15:35:49.723Z,1.95
2018-12-19T15:38:18.189Z,2.70
2018-12-19T15:40:46.562Z,2.47
2018-12-19T15:43:15.166Z,2.30
2018-12-19T15:45:43.555Z,2.42
2018-12-19T15:48:11.951Z,2.17
2018-12-19T15:50:40.344Z,2.42
2018-12-19T15:53:08.707Z,2.70
2018-12-19T15:55:37.091Z,2.83
2018-12-19T15:58:05.449Z,2.80
2018-12-19T16:00:33.826Z,2.50
2018-12-19T16:03:02.219Z,2.30
2018-12-19T16:05:30.591Z,2.35
2018-12-19T16:07:58.949Z,2.85
2018-12-19T16:10:27.376Z,2.27
2018-12-19T16:12:55.739Z,2.45
2018-12-19T16:15:24.126Z,3.30
2018-12-19T16:17:52.766Z,2.75
2018-12-19T16:20:21.125Z,3.17
2018-12-19T16:22:49.486Z,3.85
2018-12-19T16:25:17.892Z,1.85
2018-12-19T16:27:46.323Z,2.75
2018-12-19T16:30:14.692Z,2.10
2018-12-19T16:32:43.256Z,2.87
2018-12-19T16:35:11.802Z,2.77
2018-12-19T16:37:40.464Z,3.95
2018-12-19T16:40:08.967Z,3.10
2018-12-19T16:42:37.331Z,2.50
2018-12-19T16:45:06.538Z,3.62
2018-12-19T16:47:34.976Z,3.05
2018-12-19T16:50:04.316Z,4.03
2018-12-19T16:52:33.061Z,2.60
2018-12-19T16:55:01.603Z,3.15
2018-12-19T16:57:30.155Z,3.17
2018-12-19T16:59:58.727Z,2.47
2018-12-19T17:02:27.599Z,3.47
2018-12-19T17:04:55.995Z,3.50
2018-12-19T17:07:24.345Z,3.98
2018-12-19T17:09:52.752Z,3.58
2018-12-19T17:12:21.123Z,4.60
2018-12-19T17:14:49.620Z,3.67
2018-12-19T17:17:17.987Z,3.35
2018-12-19T17:19:46.904Z,4.30
2018-12-19T17:22:15.912Z,3.25
2018-12-19T17:24:44.948Z,3.35
2018-12-19T17:27:14.814Z,4.05
2018-12-19T17:29:43.680Z,3.75
2018-12-19T17:32:13.076Z,2.65
2018-12-19T17:34:42.163Z,3.50
2018-12-19T17:37:11.123Z,3.72
2018-12-19T17:39:39.984Z,6.17
2018-12-19T17:42:08.970Z,5.47
2018-12-19T17:44:38.163Z,4.30
2018-12-19T17:47:07.164Z,4.30
2018-12-19T17:49:35.967Z,4.25
2018-12-19T17:52:04.772Z,4.08
2018-12-19T17:54:33.646Z,4.40
2018-12-19T17:57:02.694Z,3.33
2018-12-19T17:59:31.790Z,3.70
2018-12-19T18:02:01.015Z,3.58
2018-12-19T18:04:30.045Z,4.42
2018-12-19T18:06:59.042Z,3.15
2018-12-19T18:09:28.055Z,3.35
2018-12-19T18:11:56.952Z,3.22
2018-12-19T18:14:25.743Z,3.87
2018-12-19T18:16:54.711Z,3.62
2018-12-19T18:19:23.678Z,3.85
2018-12-19T18:21:54.546Z,3.35
2018-12-19T18:24:23.539Z,2.85
2018-12-19T18:26:52.527Z,4.00
2018-12-19T18:29:22.787Z,3.70
2018-12-19T18:31:51.683Z,4.40
2018-12-19T18:34:20.760Z,4.17
2018-12-19T18:36:49.758Z,4.75
2018-12-19T18:39:25.936Z,4.20
2018-12-19T18:41:50.563Z,5.22
2018-12-19T18:44:19.470Z,4.62
2018-12-19T18:46:49.006Z,4.75
2018-12-19T18:49:18.163Z,4.45
2018-12-19T18:51:47.097Z,4.67
2018-12-19T18:54:16.133Z,4.45
2018-12-19T18:56:45.913Z,5.83
2018-12-19T18:59:15.532Z,5.33
2018-12-19T19:01:44.547Z,7.37
2018-12-19T19:04:13.692Z,7.08
2018-12-19T19:06:42.610Z,6.30
2018-12-19T19:09:12.125Z,6.15
2018-12-19T19:11:41.267Z,7.00
2018-12-19T19:14:10.259Z,6.55
2018-12-19T19:16:39.179Z,5.60
2018-12-19T19:19:08.243Z,5.17
2018-12-19T19:21:37.574Z,6.75
2018-12-19T19:24:07.049Z,5.92
2018-12-19T19:26:36.156Z,7.08
2018-12-19T19:29:06.047Z,6.90
2018-12-19T19:31:35.258Z,9.95
2018-12-19T19:34:05.325Z,12.60
2018-12-19T19:36:34.303Z,11.83
2018-12-19T19:39:07.290Z,8.65
2018-12-19T19:41:36.615Z,7.47
2018-12-19T19:44:05.587Z,9.43
2018-12-19T19:46:34.680Z,9.50
2018-12-19T19:49:03.818Z,8.20
2018-12-19T19:51:33.132Z,7.75
2018-12-19T19:54:02.136Z,7.35
2018-12-19T19:56:31.141Z,6.12
2018-12-19T19:59:00.706Z,7.17
2018-12-19T20:01:30.094Z,7.92
2018-12-19T20:03:59.333Z,7.42
2018-12-19T20:06:28.661Z,7.00
2018-12-19T20:08:57.624Z,5.25
2018-12-19T20:11:26.598Z,6.25
2018-12-19T20:13:55.796Z,6.72
2018-12-19T20:16:25.030Z,5.67
2018-12-19T20:18:54.516Z,7.60
2018-12-19T20:21:24.536Z,7.92
2018-12-19T20:23:53.534Z,6.22
2018-12-19T20:26:22.458Z,7.20
2018-12-19T20:28:51.472Z,7.30
2018-12-19T20:31:20.414Z,7.58
2018-12-19T20:33:49.733Z,7.20
2018-12-19T20:36:18.802Z,7.60
2018-12-19T20:38:49.089Z,7.50
2018-12-19T20:41:18.271Z,6.90
2018-12-19T20:43:47.539Z,7.80
2018-12-19T20:46:16.660Z,8.03
2018-12-19T20:48:46.151Z,7.28
2018-12-19T20:51:15.107Z,7.50
2018-12-19T20:53:44.137Z,8.00
2018-12-19T20:56:13.418Z,7.55
2018-12-19T20:58:43.235Z,6.45
2018-12-19T21:01:12.339Z,8.25
2018-12-19T21:03:41.374Z,8.38
2018-12-19T21:06:11.303Z,7.47
2018-12-19T21:08:40.564Z,7.72
2018-12-19T21:11:09.522Z,9.58
2018-12-19T21:13:39.102Z,8.83
2018-12-19T21:16:08.362Z,7.65
2018-12-19T21:18:46.392Z,8.35
2018-12-19T21:21:15.624Z,9.50
2018-12-19T21:23:44.562Z,10.50
2018-12-19T21:26:13.584Z,8.25
2018-12-19T21:28:42.587Z,9.90
2018-12-19T21:31:12.512Z,7.72
2018-12-19T21:33:41.433Z,8.50
2018-12-19T21:36:10.642Z,8.83
2018-12-19T21:38:40.156Z,7.70
2018-12-19T21:41:09.249Z,8.40
2018-12-19T21:43:38.801Z,7.35
2018-12-19T21:46:07.296Z,7.05
2018-12-19T21:48:35.699Z,7.30
2018-12-19T21:51:04.321Z,6.95
2018-12-19T21:53:32.796Z,6.03
2018-12-19T21:56:01.169Z,7.72
2018-12-19T21:58:29.694Z,7.20
2018-12-19T22:00:58.283Z,6.20
2018-12-19T22:03:27.260Z,6.42
2018-12-19T22:05:55.672Z,5.30
2018-12-19T22:08:24.041Z,5.00
2018-12-19T22:10:52.651Z,5.10
2018-12-19T22:13:21.194Z,6.50
2018-12-19T22:15:49.631Z,6.22
2018-12-19T22:18:23.355Z,6.05
2018-12-19T22:20:51.718Z,5.85
2018-12-19T22:23:20.140Z,6.20
2018-12-19T22:25:48.609Z,5.12
2018-12-19T22:28:17.496Z,7.00
2018-12-19T22:30:45.955Z,5.08
2018-12-19T22:33:14.675Z,5.60
2018-12-19T22:35:43.322Z,4.00
2018-12-19T22:38:11.709Z,4.75
2018-12-19T22:40:40.216Z,5.35
2018-12-19T22:43:08.585Z,4.45
2018-12-19T22:45:36.952Z,4.37
2018-12-19T22:48:05.540Z,3.22
2018-12-19T22:50:34.168Z,3.95
2018-12-19T22:53:02.512Z,4.05
2018-12-19T22:55:30.898Z,4.60
2018-12-19T22:57:59.282Z,3.90
2018-12-19T23:00:29.793Z,4.10
2018-12-19T23:03:03.528Z,3.55
2018-12-19T23:05:37.220Z,4.08
2018-12-19T23:08:05.672Z,3.98
2018-12-19T23:10:34.115Z,4.10
2018-12-19T23:13:03.101Z,3.25
2018-12-19T23:15:31.688Z,3.72
2018-12-19T23:18:05.533Z,3.45
2018-12-19T23:20:33.956Z,4.25
2018-12-19T23:23:02.349Z,4.00
2018-12-19T23:25:31.246Z,4.12
2018-12-19T23:27:59.690Z,3.05
2018-12-19T23:30:28.322Z,3.25
2018-12-19T23:32:56.838Z,3.85
2018-12-19T23:35:25.354Z,3.15
2018-12-19T23:37:53.901Z,4.12
2018-12-19T23:40:23.416Z,3.02
2018-12-19T23:42:51.932Z,5.03
2018-12-19T23:45:20.384Z,4.08
2018-12-19T23:47:48.847Z,3.67
2018-12-19T23:50:17.247Z,3.77
2018-12-19T23:52:45.716Z,3.02
2018-12-19T23:55:14.225Z,5.15
2018-12-19T23:57:42.953Z,2.67
